Time;durP1;ratioP1;P1;durP2;ratioP2;P2;SDS_P1;SDS_P2;PMS_P1;PMS_P2;Temp;Humidity;BMP_temperature;BMP_pressure;BME280_temperature;BME280_humidity;BME280_pressure;Samples;Min_cycle;Max_cycle;Signal;HPM_P1;HPM_P2
2022/10/17 00:01:48;;;;;;;4.50;3.88;;;;;;;17.06;60.35;102761.72;5051519;28;20029;-82
2022/10/17 00:04:14;;;;;;;4.93;3.75;;;;;;;17.19;60.53;102777.44;5051234;28;20082;-81
2022/10/17 00:06:40;;;;;;;6.75;3.88;;;;;;;17.19;59.96;102780.09;5045110;28;20055;-82
2022/10/17 00:09:05;;;;;;;6.53;4.40;;;;;;;17.09;60.40;102757.50;5031170;28;20033;-82
2022/10/17 00:11:31;;;;;;;8.63;4.22;;;;;;;17.11;59.69;102769.91;5048199;28;20032;-82
2022/10/17 00:13:57;;;;;;;5.72;4.20;;;;;;;17.09;59.80;102770.69;5050150;28;20057;-82
2022/10/17 00:16:27;;;;;;;5.40;4.05;;;;;;;17.17;59.02;102780.81;5050054;28;20029;-82
2022/10/17 00:18:53;;;;;;;7.22;4.32;;;;;;;17.16;59.35;102776.34;5049489;28;20120;-82
2022/10/17 00:21:19;;;;;;;6.50;4.28;;;;;;;17.13;59.47;102770.91;5050136;28;20452;-81
2022/10/17 00:23:46;;;;;;;5.13;3.97;;;;;;;17.12;60.33;102764.69;5048987;28;20484;-81
2022/10/17 00:26:12;;;;;;;6.88;4.63;;;;;;;17.11;59.88;102762.88;5050267;28;20028;-81
2022/10/17 00:28:37;;;;;;;7.45;4.28;;;;;;;17.07;60.23;102758.22;5050156;28;20539;-82
2022/10/17 00:31:05;;;;;;;5.43;4.20;;;;;;;17.07;60.84;102763.50;5039055;28;20080;-81
2022/10/17 00:33:31;;;;;;;5.82;3.78;;;;;;;16.95;60.64;102745.19;5044463;28;20509;-81
2022/10/17 00:36:05;;;;;;;4.80;3.72;;;;;;;17.01;60.64;102748.22;5050515;28;20021;-81
2022/10/17 00:38:31;;;;;;;5.32;3.92;;;;;;;17.01;60.07;102737.66;5048649;28;20049;-81
2022/10/17 00:40:57;;;;;;;10.00;4.35;;;;;;;17.05;60.07;102751.94;5048952;28;20029;-81
2022/10/17 00:43:22;;;;;;;8.75;4.32;;;;;;;16.84;59.73;102723.47;5047665;28;20071;-81
2022/10/17 00:45:48;;;;;;;8.90;4.45;;;;;;;16.97;60.23;102743.56;5030597;28;20023;-81
2022/10/17 00:48:14;;;;;;;6.20;4.55;;;;;;;17.02;59.57;102749.16;5038740;28;20476;-81
2022/10/17 00:50:42;;;;;;;7.18;4.45;;;;;;;17.02;60.48;102742.13;5045848;28;20029;-81
2022/10/17 00:53:08;;;;;;;9.45;4.82;;;;;;;16.96;60.77;102744.41;5050930;28;20029;-81
2022/10/17 00:55:34;;;;;;;;;;;;;;;16.99;60.50;102749.84;5049575;28;20048;-80
2022/10/17 00:58:02;;;;;;;6.93;4.30;;;;;;;16.99;60.64;102743.66;5043665;28;19913;-80
2022/10/17 01:00:28;;;;;;;5.72;4.22;;;;;;;16.94;60.11;102753.06;5033146;28;20518;-79
2022/10/17 01:02:54;;;;;;;7.75;4.47;;;;;;;16.91;59.88;102750.22;5048585;28;20028;-81
2022/10/17 01:05:19;;;;;;;7.68;4.70;;;;;;;17.02;59.59;102755.31;5051437;28;20567;-81
2022/10/17 01:07:46;;;;;;;10.13;4.50;;;;;;;16.87;60.56;102738.59;5036091;28;20144;-80
2022/10/17 01:10:13;;;;;;;11.27;4.40;;;;;;;16.94;59.54;102745.13;5050083;28;20033;-80
2022/10/17 01:13:00;;;;;;;8.00;4.47;;;;;;;16.85;59.49;102748.13;5047892;28;20450;-81
2022/10/17 01:15:36;;;;;;;7.75;4.40;;;;;;;16.95;59.04;102758.41;5042677;28;20021;-81
2022/10/17 01:18:27;;;;;;;8.63;5.03;;;;;;;16.89;59.22;102742.22;5047138;28;20100;-81
2022/10/17 01:21:11;;;;;;;7.22;4.20;;;;;;;17.00;59.33;102761.34;5049867;28;20025;-81
2022/10/17 01:24:08;;;;;;;8.60;4.82;;;;;;;17.07;59.14;102763.50;5053860;28;20615;-80
2022/10/17 01:27:10;;;;;;;7.53;4.53;;;;;;;16.99;58.74;102770.97;5041941;28;20108;-80
2022/10/17 01:30:05;;;;;;;5.10;4.00;;;;;;;16.97;59.51;102769.06;5040628;28;20029;-80
2022/10/17 01:32:38;;;;;;;9.98;4.43;;;;;;;16.86;59.98;102778.97;5052863;28;20064;-80
2022/10/17 01:35:19;;;;;;;7.10;5.18;;;;;;;16.91;59.85;102776.59;5038694;28;20108;-81
2022/10/17 01:38:03;;;;;;;9.48;4.65;;;;;;;16.98;58.76;102778.81;5043603;28;20478;-81
2022/10/17 01:40:38;;;;;;;9.63;4.95;;;;;;;16.93;59.82;102777.59;5033611;28;20057;-81
2022/10/17 01:43:28;;;;;;;6.20;4.45;;;;;;;16.94;59.76;102768.91;5035828;28;20017;-81
2022/10/17 01:46:10;;;;;;;6.38;4.03;;;;;;;16.88;60.46;102783.53;5035588;28;20104;-80
2022/10/17 01:48:37;;;;;;;5.43;4.00;;;;;;;16.96;59.72;102777.81;5050325;28;20025;-81
2022/10/17 01:51:39;;;;;;;6.95;4.45;;;;;;;16.93;60.18;102780.25;5048028;28;20025;-80
2022/10/17 01:54:10;;;;;;;7.90;4.68;;;;;;;16.93;59.55;102765.31;5047986;28;20482;-80
2022/10/17 01:56:37;;;;;;;7.03;4.57;;;;;;;16.89;59.65;102782.72;5039743;28;20021;-81
2022/10/17 01:59:11;;;;;;;6.90;4.47;;;;;;;16.87;60.14;102770.25;5036709;28;20042;-80
2022/10/17 02:01:37;;;;;;;7.55;4.50;;;;;;;16.99;59.59;102781.53;5040361;28;20033;-81
2022/10/17 02:04:03;;;;;;;6.68;4.45;;;;;;;16.94;60.02;102784.72;5035925;28;20029;-80
2022/10/17 02:06:28;;;;;;;6.90;4.45;;;;;;;16.92;60.07;102774.06;5044896;28;20082;-81
2022/10/17 02:08:54;;;;;;;6.30;4.25;;;;;;;16.93;59.72;102786.44;5042157;28;20055;-81
2022/10/17 02:11:24;;;;;;;6.15;4.53;;;;;;;16.85;60.06;102774.53;5045754;28;20037;-81
2022/10/17 02:14:11;;;;;;;6.20;3.97;;;;;;;16.94;59.76;102796.19;5041356;28;20103;-81
2022/10/17 02:17:02;;;;;;;4.97;4.00;;;;;;;16.93;59.81;102791.72;5048769;28;20456;-81
2022/10/17 02:19:31;;;;;;;7.60;4.28;;;;;;;17.00;59.64;102796.56;5047805;28;20035;-81
2022/10/17 02:22:22;;;;;;;6.65;4.10;;;;;;;16.97;59.73;102804.28;5051273;28;20031;-80
2022/10/17 02:24:54;;;;;;;6.85;4.35;;;;;;;17.02;59.81;102808.13;5045239;28;20052;-80
2022/10/17 02:27:25;;;;;;;6.78;4.00;;;;;;;16.94;60.20;102803.19;5048930;28;20052;-80
2022/10/17 02:30:02;;;;;;;5.57;3.70;;;;;;;16.95;60.01;102798.00;5044201;28;20073;-80
2022/10/17 02:32:56;;;;;;;5.57;4.30;;;;;;;17.02;59.74;102800.19;5055973;28;20120;-81
2022/10/17 02:35:25;;;;;;;6.13;4.60;;;;;;;16.88;59.85;102786.16;5031402;28;20114;-80
2022/10/17 02:37:50;;;;;;;4.93;4.07;;;;;;;16.96;59.74;102799.84;5041358;28;20051;-79
2022/10/17 02:40:18;;;;;;;6.53;4.50;;;;;;;16.93;59.95;102796.09;5038450;28;20491;-81
2022/10/17 02:42:44;;;;;;;5.05;3.78;;;;;;;17.02;59.63;102794.91;5046560;28;20483;-81
2022/10/17 02:45:10;;;;;;;7.10;4.55;;;;;;;17.04;59.89;102806.50;5040674;28;20021;-81
2022/10/17 02:47:42;;;;;;;6.18;4.20;;;;;;;16.84;59.81;102789.44;5046311;28;20075;-81
2022/10/17 02:50:09;;;;;;;7.80;4.60;;;;;;;16.81;59.68;102810.38;5043882;28;20532;-82
2022/10/17 02:52:37;;;;;;;6.47;4.15;;;;;;;16.77;59.93;102810.97;5043305;28;20109;-81
2022/10/17 02:55:07;;;;;;;8.07;4.63;;;;;;;16.81;59.73;102818.28;5044757;28;20021;-84
2022/10/17 02:57:42;;;;;;;8.02;4.32;;;;;;;16.76;59.85;102819.69;5044942;28;20034;-81
2022/10/17 03:00:12;;;;;;;7.50;4.63;;;;;;;16.73;59.27;102798.41;5030030;28;20036;-81
2022/10/17 03:02:40;;;;;;;7.22;4.18;;;;;;;16.81;59.81;102817.38;5043355;28;20013;-81
2022/10/17 03:05:06;;;;;;;8.68;5.13;;;;;;;16.81;59.10;102810.38;5035649;28;20028;-80
2022/10/17 03:07:32;;;;;;;9.38;4.75;;;;;;;16.78;59.68;102811.88;5046297;28;20028;-80
2022/10/17 03:09:57;;;;;;;7.00;4.38;;;;;;;16.73;59.64;102801.03;5048518;28;20025;-80
2022/10/17 03:12:23;;;;;;;8.48;4.75;;;;;;;16.76;59.93;102810.84;5049002;28;20115;-81
2022/10/17 03:14:48;;;;;;;8.70;4.55;;;;;;;16.72;59.05;102799.22;5044698;28;20048;-80
2022/10/17 03:17:14;;;;;;;9.55;4.72;;;;;;;16.74;59.49;102809.84;5037153;28;20040;-80
2022/10/17 03:19:39;;;;;;;8.15;4.75;;;;;;;16.72;59.42;102807.13;5039372;28;20052;-80
2022/10/17 03:22:05;;;;;;;6.88;4.53;;;;;;;16.69;59.63;102810.47;5045985;28;20074;-81
2022/10/17 03:24:31;;;;;;;7.45;4.90;;;;;;;16.72;59.94;102817.69;5049530;28;20071;-81
2022/10/17 03:26:56;;;;;;;6.63;4.20;;;;;;;16.67;59.54;102816.47;5043358;28;20030;-81
2022/10/17 03:29:22;;;;;;;6.68;4.43;;;;;;;16.77;59.34;102810.06;5031544;28;20167;-81
2022/10/17 03:31:47;;;;;;;6.47;4.38;;;;;;;16.74;59.44;102810.75;5034850;28;20025;-80
2022/10/17 03:34:15;;;;;;;6.68;4.68;;;;;;;16.75;59.20;102817.88;5041684;28;20029;-80
2022/10/17 03:36:41;;;;;;;9.30;4.82;;;;;;;16.80;59.15;102815.50;5044974;28;20024;-81
2022/10/17 03:39:06;;;;;;;6.72;4.72;;;;;;;16.73;59.35;102818.59;5037597;28;20052;-81
2022/10/17 03:41:32;;;;;;;9.43;5.07;;;;;;;16.75;59.25;102820.50;5034776;28;20033;-80
2022/10/17 03:43:57;;;;;;;5.97;4.40;;;;;;;16.61;59.33;102808.19;5050559;28;20029;-81
2022/10/17 03:46:23;;;;;;;7.47;5.00;;;;;;;16.68;59.89;102815.69;5039159;28;20037;-81
2022/10/17 03:48:48;;;;;;;9.88;4.63;;;;;;;16.76;58.79;102826.69;5045133;28;20108;-81
2022/10/17 03:51:14;;;;;;;8.65;5.05;;;;;;;16.73;58.56;102824.78;5046282;28;20056;-81
2022/10/17 03:53:40;;;;;;;7.90;4.93;;;;;;;16.68;59.06;102820.97;5045817;28;20055;-79
2022/10/17 03:56:17;;;;;;;7.85;5.00;;;;;;;16.63;59.42;102830.28;5034273;28;20040;-81
2022/10/17 03:58:43;;;;;;;8.55;4.88;;;;;;;16.61;59.16;102826.66;5044084;28;20091;-81
2022/10/17 04:01:11;;;;;;;8.45;4.45;;;;;;;16.75;59.08;102832.78;5043896;28;20033;-80
2022/10/17 04:03:37;;;;;;;11.30;5.50;;;;;;;16.63;59.03;102830.28;5050611;28;20035;-81
2022/10/17 04:06:04;;;;;;;10.38;5.38;;;;;;;16.68;59.06;102826.22;5042585;28;20040;-82
2022/10/17 04:08:30;;;;;;;7.60;5.00;;;;;;;16.69;59.19;102828.03;5045923;28;20037;-82
2022/10/17 04:11:00;;;;;;;7.60;4.40;;;;;;;16.79;58.24;102832.16;5049952;28;20025;-82
2022/10/17 04:13:26;;;;;;;7.80;4.80;;;;;;;16.73;59.25;102831.78;5042910;28;20025;-82
2022/10/17 04:16:00;;;;;;;10.02;5.15;;;;;;;16.66;58.98;102820.84;5033146;28;20065;-82
2022/10/17 04:18:26;;;;;;;9.63;4.93;;;;;;;16.67;59.00;102829.66;5035826;28;20036;-82
2022/10/17 04:20:52;;;;;;;7.28;4.55;;;;;;;16.67;59.04;102832.31;5037625;28;20033;-82
2022/10/17 04:23:18;;;;;;;9.27;4.90;;;;;;;16.60;58.84;102820.47;5039543;28;20391;-82
2022/10/17 04:25:44;;;;;;;8.80;4.45;;;;;;;16.72;58.93;102840.50;5045748;28;20033;-83
2022/10/17 04:28:09;;;;;;;9.07;4.75;;;;;;;16.69;58.93;102844.78;5038413;28;20470;-82
2022/10/17 04:30:35;;;;;;;7.25;4.68;;;;;;;16.67;59.15;102840.22;5043266;28;20025;-82
2022/10/17 04:33:01;;;;;;;8.57;5.10;;;;;;;16.65;58.74;102824.28;5053563;28;20597;-83
2022/10/17 04:35:27;;;;;;;8.27;4.85;;;;;;;16.71;58.47;102850.16;5053075;28;20021;-83
2022/10/17 04:37:52;;;;;;;8.57;4.88;;;;;;;16.65;59.44;102849.78;5038377;28;20403;-82
2022/10/17 04:40:18;;;;;;;8.60;4.53;;;;;;;16.70;58.47;102848.34;5047533;28;20033;-79
2022/10/17 04:42:44;;;;;;;8.02;4.55;;;;;;;16.80;58.48;102852.44;5045479;28;20044;-81
2022/10/17 04:45:10;;;;;;;6.13;4.88;;;;;;;16.62;59.45;102841.69;5034681;28;20088;-80
2022/10/17 04:47:35;;;;;;;10.25;4.75;;;;;;;16.79;58.59;102855.91;5043653;28;20655;-80
2022/10/17 04:50:01;;;;;;;9.27;4.90;;;;;;;16.68;59.16;102856.16;5040744;28;20527;-79
2022/10/17 04:52:26;;;;;;;7.45;4.88;;;;;;;16.47;58.84;102841.63;5047363;28;20032;-81
2022/10/17 04:54:52;;;;;;;10.10;5.22;;;;;;;16.68;58.34;102863.19;5038040;28;20159;-80
2022/10/17 04:57:18;;;;;;;8.07;5.07;;;;;;;16.71;58.73;102867.72;5052311;28;20430;-81
2022/10/17 04:59:44;;;;;;;7.80;4.72;;;;;;;16.74;58.59;102867.91;5052974;28;20163;-80
2022/10/17 05:02:10;;;;;;;8.73;4.57;;;;;;;16.64;59.05;102869.06;5050178;28;20111;-79
2022/10/17 05:04:35;;;;;;;9.10;4.60;;;;;;;16.69;58.78;102872.91;5038670;28;20561;-81
2022/10/17 05:07:01;;;;;;;10.82;4.80;;;;;;;16.58;59.16;102869.59;5043453;28;20032;-81
2022/10/17 05:09:26;;;;;;;8.27;5.00;;;;;;;16.60;59.16;102872.31;5051354;28;20033;-82
2022/10/17 05:11:52;;;;;;;6.85;4.72;;;;;;;16.58;59.14;102888.03;5041024;28;20399;-81
2022/10/17 05:14:18;;;;;;;8.70;4.85;;;;;;;16.62;58.76;102892.72;5046554;28;20470;-85
2022/10/17 05:16:43;;;;;;;7.30;4.47;;;;;;;16.54;59.26;102878.13;5035236;28;20419;-84
2022/10/17 05:19:10;;;;;;;7.95;4.43;;;;;;;16.58;58.62;102906.50;5039378;28;20061;-84
2022/10/17 05:21:36;;;;;;;7.00;4.47;;;;;;;16.63;58.88;102906.81;5044956;28;20051;-85
2022/10/17 05:24:07;;;;;;;7.53;4.40;;;;;;;16.57;58.43;102899.41;5041634;28;20036;-83
2022/10/17 05:26:33;;;;;;;7.68;4.35;;;;;;;16.67;58.40;102900.91;5037567;28;20038;-83
2022/10/17 05:29:01;;;;;;;7.85;4.43;;;;;;;16.69;58.68;102915.09;5044227;28;20052;-84
2022/10/17 05:31:28;;;;;;;7.22;4.60;;;;;;;16.64;58.51;102914.81;5043325;28;20086;-83
2022/10/17 05:33:57;;;;;;;6.90;4.30;;;;;;;16.60;58.34;102898.72;5051538;28;20025;-84
2022/10/17 05:36:23;;;;;;;6.53;4.30;;;;;;;16.73;58.98;102926.78;5039551;28;20473;-84
2022/10/17 05:38:50;;;;;;;9.65;4.70;;;;;;;16.79;58.54;102928.06;5036773;28;20124;-90
2022/10/17 05:41:17;;;;;;;6.38;4.15;;;;;;;16.80;58.46;102937.84;5039154;28;20195;-92
2022/10/17 05:43:46;;;;;;;9.35;4.68;;;;;;;16.81;58.58;102921.19;5036486;28;20036;-90
2022/10/17 05:46:12;;;;;;;6.72;4.38;;;;;;;16.75;58.72;102923.41;5040833;28;20145;-90
2022/10/17 05:48:38;;;;;;;6.63;4.00;;;;;;;16.79;58.57;102936.00;5038266;28;20561;-88
2022/10/17 05:51:06;;;;;;;8.50;4.78;;;;;;;16.65;59.18;102932.47;5040082;28;20044;-89
2022/10/17 05:53:33;;;;;;;8.07;4.22;;;;;;;16.47;59.09;102915.47;5045625;28;20036;-89
2022/10/17 05:56:01;;;;;;;8.07;4.93;;;;;;;16.47;58.67;102908.47;5026889;28;20037;-90
2022/10/17 05:58:27;;;;;;;10.90;4.82;;;;;;;16.52;58.63;102923.69;5032473;28;20048;-90
2022/10/17 06:01:00;;;;;;;;;;;;;;;16.78;58.74;102952.63;5039233;28;20028;-90
2022/10/17 06:03:25;;;;;;;6.60;4.20;;;;;;;16.78;58.75;102949.97;5039982;28;19924;-89
2022/10/17 06:05:51;;;;;;;8.18;4.28;;;;;;;16.79;59.02;102945.66;5038501;28;20029;-87
2022/10/17 06:08:17;;;;;;;7.22;4.15;;;;;;;16.67;58.98;102951.94;5041804;28;20037;-87
2022/10/17 06:10:46;;;;;;;9.10;4.45;;;;;;;16.74;58.88;102966.44;5044895;28;20029;-87
2022/10/17 06:13:12;;;;;;;8.13;4.25;;;;;;;16.64;58.92;102953.50;5041962;28;20060;-90
2022/10/17 06:15:38;;;;;;;6.38;3.88;;;;;;;16.48;59.33;102933.09;5046779;28;20052;-91
2022/10/17 06:18:03;;;;;;;7.50;4.35;;;;;;;16.39;59.07;102911.44;5039425;28;20521;-89
2022/10/17 06:20:29;;;;;;;9.70;4.68;;;;;;;16.15;59.25;102887.94;5035590;28;20113;-89
2022/10/17 06:22:54;;;;;;;7.95;4.18;;;;;;;16.39;59.50;102936.06;5051374;28;20052;-88
2022/10/17 06:25:21;;;;;;;7.82;4.65;;;;;;;16.64;59.09;102966.69;5052062;28;20037;-87
2022/10/17 06:27:46;;;;;;;9.02;4.50;;;;;;;16.54;59.30;102956.34;5040192;28;20087;-87
2022/10/17 06:30:13;;;;;;;7.55;4.47;;;;;;;16.40;59.17;102947.53;5046898;28;20029;-90
2022/10/17 06:32:39;;;;;;;8.05;4.53;;;;;;;16.59;59.40;102978.66;5029108;28;20119;-89
2022/10/17 06:35:05;;;;;;;8.25;4.60;;;;;;;16.45;59.34;102954.94;5039451;28;20101;-89
2022/10/17 06:37:32;;;;;;;9.05;4.68;;;;;;;16.42;59.01;102954.72;5059102;28;20041;-89
2022/10/17 06:39:58;;;;;;;8.43;4.55;;;;;;;16.43;59.52;102968.84;5034024;28;20493;-89
2022/10/17 06:42:24;;;;;;;7.55;4.45;;;;;;;16.27;59.82;102930.00;5038125;28;20426;-90
2022/10/17 06:44:51;;;;;;;7.38;4.63;;;;;;;16.36;59.36;102935.88;5036916;28;20068;-91
2022/10/17 06:47:16;;;;;;;6.18;4.10;;;;;;;16.33;59.73;102935.66;5039431;28;20047;-88
2022/10/17 06:49:42;;;;;;;6.95;4.50;;;;;;;16.27;59.40;102922.06;5041997;28;20258;-89
2022/10/17 06:52:09;;;;;;;8.65;4.50;;;;;;;16.25;59.97;102929.88;5035059;28;20033;-88
2022/10/17 06:54:35;;;;;;;8.23;4.53;;;;;;;16.32;59.97;102951.38;5027892;28;20179;-89
2022/10/17 06:57:00;;;;;;;6.72;4.18;;;;;;;16.47;59.63;102976.13;5041074;28;20530;-90
2022/10/17 06:59:26;;;;;;;8.27;4.28;;;;;;;16.29;60.05;102954.72;5036247;28;20033;-90
2022/10/17 07:01:52;;;;;;;8.35;4.38;;;;;;;16.26;59.62;102955.44;5042413;28;20423;-90
2022/10/17 07:04:18;;;;;;;5.78;4.13;;;;;;;16.41;60.04;102989.81;5043401;28;20042;-89
2022/10/17 07:06:44;;;;;;;6.90;4.25;;;;;;;16.50;59.63;102997.44;5038096;28;20478;-89
2022/10/17 07:09:09;;;;;;;10.25;4.97;;;;;;;16.01;59.78;102905.47;5039869;28;20040;-89
2022/10/17 07:11:39;;;;;;;6.93;4.35;;;;;;;16.52;60.30;103010.72;5033787;28;20388;-90
2022/10/17 07:14:04;;;;;;;6.53;4.10;;;;;;;16.09;59.49;102908.63;5033996;28;20040;-88
2022/10/17 07:16:30;;;;;;;7.22;4.07;;;;;;;16.63;59.60;103007.97;5042684;28;20545;-88
2022/10/17 07:18:56;;;;;;;6.72;4.13;;;;;;;16.41;60.13;102971.38;5047607;28;20044;-89
2022/10/17 07:21:21;;;;;;;8.95;4.38;;;;;;;16.52;60.02;102990.53;5031448;28;20026;-88
2022/10/17 07:23:48;;;;;;;8.63;4.65;;;;;;;16.49;60.28;102992.97;5042429;28;20064;-90
2022/10/17 07:26:16;;;;;;;7.85;4.40;;;;;;;16.56;60.16;103010.13;5034061;28;20030;-91
2022/10/17 07:28:44;;;;;;;8.02;4.38;;;;;;;16.28;60.26;102959.09;5027995;28;20028;-88
2022/10/17 07:31:13;;;;;;;8.18;4.30;;;;;;;16.64;60.09;103008.91;5031248;28;20021;-88
2022/10/17 07:33:39;;;;;;;6.95;4.18;;;;;;;16.46;60.33;102987.47;5044056;28;20104;-89
2022/10/17 07:36:05;;;;;;;6.65;4.60;;;;;;;16.60;60.02;103009.50;5031029;28;20108;-90
2022/10/17 07:38:31;;;;;;;7.20;4.20;;;;;;;16.60;60.46;103015.69;5044280;28;20399;-90
2022/10/17 07:40:58;;;;;;;6.20;4.20;;;;;;;16.52;59.93;102992.25;5038137;28;20021;-87
2022/10/17 07:43:25;;;;;;;6.88;4.40;;;;;;;16.60;60.09;103010.41;5034132;28;20036;-88
2022/10/17 07:45:50;;;;;;;;;;;;;;;16.64;60.42;103016.81;5047289;28;20060;-88
2022/10/17 07:48:16;;;;;;;7.28;4.20;;;;;;;16.50;60.59;102994.78;5037753;28;19983;-86
2022/10/17 07:50:42;;;;;;;6.40;4.32;;;;;;;16.25;60.58;102956.25;5045600;28;20036;-86
2022/10/17 07:53:08;;;;;;;9.80;4.47;;;;;;;16.58;60.96;103014.66;5027601;28;20040;-87
2022/10/17 07:55:33;;;;;;;7.90;4.30;;;;;;;16.50;61.17;102997.44;5038829;28;20394;-87
2022/10/17 07:57:59;;;;;;;6.07;4.57;;;;;;;16.25;60.60;102958.88;5039503;28;20455;-86
2022/10/17 08:00:26;;;;;;;7.93;4.53;;;;;;;16.47;60.23;102978.78;5038203;28;20033;-89
2022/10/17 08:02:51;;;;;;;7.18;4.13;;;;;;;16.32;60.89;102956.66;5035205;28;20029;-88
2022/10/17 08:05:17;;;;;;;5.72;4.22;;;;;;;16.68;60.38;103019.75;5034478;28;20045;-86
2022/10/17 08:07:43;;;;;;;5.20;4.03;;;;;;;16.24;61.14;102958.81;5042064;28;20122;-88
2022/10/17 08:10:12;;;;;;;6.90;4.32;;;;;;;16.41;61.09;102975.75;5043192;28;20040;-87
2022/10/17 08:12:37;;;;;;;5.53;4.20;;;;;;;16.52;61.03;103002.81;5036152;28;20029;-88
2022/10/17 08:15:04;;;;;;;6.32;4.32;;;;;;;16.25;60.97;102947.44;5033070;28;20086;-88
2022/10/17 08:17:30;;;;;;;8.70;4.45;;;;;;;16.41;60.99;102963.44;5037563;28;20038;-86
2022/10/17 08:19:55;;;;;;;6.78;4.05;;;;;;;16.54;61.44;102995.91;5041472;28;20024;-87
2022/10/17 08:22:21;;;;;;;6.55;3.97;;;;;;;16.44;61.24;102968.91;5038487;28;20100;-89
2022/10/17 08:24:47;;;;;;;5.93;3.80;;;;;;;16.54;61.12;102982.72;5026605;28;20025;-87
2022/10/17 08:27:13;;;;;;;4.80;3.90;;;;;;;16.51;61.26;102978.16;5033198;28;20041;-88
2022/10/17 08:29:39;;;;;;;8.07;4.57;;;;;;;16.55;62.14;103011.84;5042715;28;20038;-88
2022/10/17 08:32:06;;;;;;;7.60;3.88;;;;;;;16.56;62.25;103012.75;5035324;28;20037;-89
2022/10/17 08:34:32;;;;;;;9.30;4.43;;;;;;;16.40;62.14;102990.66;5040746;28;20029;-88
2022/10/17 08:36:58;;;;;;;5.53;4.18;;;;;;;16.31;61.99;102963.66;5053302;28;20647;-88
2022/10/17 08:39:23;;;;;;;7.55;4.60;;;;;;;16.47;62.48;103015.69;5032913;28;20045;-86
2022/10/17 08:42:08;;;;;;;8.60;4.85;;;;;;;16.54;62.04;103007.38;5049936;28;20040;-86
2022/10/17 08:45:08;;;;;;;7.68;4.25;;;;;;;16.65;61.90;103016.88;5033020;28;20124;-87
2022/10/17 08:47:42;;;;;;;6.28;4.35;;;;;;;16.55;62.41;103021.47;5029905;28;20033;-87
2022/10/17 08:50:20;;;;;;;8.60;4.40;;;;;;;16.46;62.73;103020.03;5053291;28;20036;-86
2022/10/17 08:52:55;;;;;;;6.45;4.50;;;;;;;16.38;62.92;103009.78;5051359;28;20091;-85
2022/10/17 08:55:33;;;;;;;10.90;4.93;;;;;;;16.43;62.78;103016.31;5048204;28;20413;-84
2022/10/17 08:57:59;;;;;;;13.25;4.97;;;;;;;16.25;63.25;103008.97;5054239;28;20029;-84
2022/10/17 09:00:25;;;;;;;8.88;4.30;;;;;;;16.39;63.11;103011.66;5046337;28;20032;-85
2022/10/17 09:03:09;;;;;;;10.40;4.88;;;;;;;16.46;62.78;103022.69;5036065;28;20064;-86
2022/10/17 09:06:02;;;;;;;7.60;4.10;;;;;;;16.40;62.81;102988.03;5034930;28;20044;-86
2022/10/17 09:08:50;;;;;;;7.32;4.63;;;;;;;16.36;63.17;103006.16;5037615;28;20609;-86
2022/10/17 09:11:38;;;;;;;9.18;4.38;;;;;;;16.39;62.96;103007.28;5037310;28;20033;-86
2022/10/17 09:14:25;;;;;;;7.97;4.32;;;;;;;16.35;63.33;103015.78;5036661;28;20032;-85
2022/10/17 09:17:05;;;;;;;6.75;4.40;;;;;;;16.36;63.42;103020.28;5050345;28;20029;-85
2022/10/17 09:19:40;;;;;;;6.03;4.32;;;;;;;16.52;63.06;103016.00;5048946;28;20051;-85
2022/10/17 09:22:22;;;;;;;6.35;4.18;;;;;;;16.53;63.09;103016.09;5049803;28;20032;-87
2022/10/17 09:25:05;;;;;;;7.75;4.18;;;;;;;16.37;63.49;102998.34;5034138;28;20032;-86
2022/10/17 09:27:41;;;;;;;10.77;4.55;;;;;;;16.37;63.75;103008.91;5029727;28;20026;-86
2022/10/17 09:30:27;;;;;;;8.82;4.05;;;;;;;16.11;63.75;102962.34;5032639;28;20032;-84
2022/10/17 09:32:53;;;;;;;7.25;3.70;;;;;;;16.22;64.34;102981.53;5033284;28;20037;-86
2022/10/17 09:35:19;;;;;;;5.55;4.07;;;;;;;16.08;63.83;102959.50;5045987;28;20447;-87
2022/10/17 09:37:46;;;;;;;7.82;4.00;;;;;;;16.51;63.35;103011.53;5032525;28;20029;-87
2022/10/17 09:40:14;;;;;;;;;;;;;;;16.42;64.11;103002.19;5047556;28;20048;-86
2022/10/17 09:42:40;;;;;;;6.40;4.20;;;;;;;16.31;63.77;102986.47;5040661;28;19916;-87
2022/10/17 09:45:18;;;;;;;8.90;4.07;;;;;;;16.41;63.17;102987.19;5045583;28;20083;-87
2022/10/17 09:48:15;;;;;;;6.50;3.85;;;;;;;16.13;63.51;102941.34;5038132;28;20616;-87
2022/10/17 09:50:41;;;;;;;7.88;3.90;;;;;;;16.32;64.05;102988.28;5045513;28;20025;-85
2022/10/17 09:53:28;;;;;;;5.88;3.88;;;;;;;16.46;63.47;103003.31;5048761;28;20031;-86
2022/10/17 09:55:56;;;;;;;6.68;3.83;;;;;;;16.52;63.24;102998.44;5045182;28;20018;-87
2022/10/17 09:58:22;;;;;;;5.35;3.60;;;;;;;16.46;63.24;102993.66;5036475;28;20701;-87
2022/10/17 10:00:48;;;;;;;5.03;3.63;;;;;;;16.51;63.04;102996.63;5044747;28;20033;-87
2022/10/17 10:03:19;;;;;;;8.52;4.18;;;;;;;16.44;62.83;102975.91;5048146;28;20033;-87
2022/10/17 10:06:01;;;;;;;7.97;3.53;;;;;;;16.60;62.90;102997.22;5037973;28;20097;-86
2022/10/17 10:08:49;;;;;;;6.85;3.67;;;;;;;16.52;63.51;103001.06;5045288;28;20037;-85
2022/10/17 10:11:14;;;;;;;;;;;;;;;16.58;63.04;102997.94;5025449;28;20500;-84
2022/10/17 10:13:41;;;;;;;6.00;3.33;;;;;;;16.31;63.16;102949.56;5050607;28;19909;-85
2022/10/17 10:16:23;;;;;;;8.70;3.67;;;;;;;16.18;63.54;102932.03;5047219;28;20018;-86
2022/10/17 10:18:50;;;;;;;7.43;3.30;;;;;;;16.28;63.29;102959.09;5031074;28;20032;-87
2022/10/17 10:21:19;;;;;;;8.80;4.03;;;;;;;16.47;63.81;102998.16;5031175;28;20025;-88
2022/10/17 10:24:10;;;;;;;6.30;3.50;;;;;;;16.53;63.97;102995.00;5032641;28;20498;-85
2022/10/17 10:26:43;;;;;;;6.68;3.53;;;;;;;16.40;63.91;102972.19;5030441;28;20442;-86
2022/10/17 10:29:34;;;;;;;4.82;3.20;;;;;;;16.61;63.46;103001.66;5041079;28;20665;-87
2022/10/17 10:32:22;;;;;;;5.70;3.28;;;;;;;16.64;63.57;102995.69;5034681;28;20032;-86
2022/10/17 10:34:49;;;;;;;4.95;3.30;;;;;;;16.54;63.53;102998.56;5032994;28;20036;-87
2022/10/17 10:37:22;;;;;;;7.72;3.75;;;;;;;16.34;63.59;102955.03;5039879;28;20033;-86
2022/10/17 10:39:56;;;;;;;8.27;3.65;;;;;;;16.44;63.46;102953.09;5030563;28;20139;-87
2022/10/17 10:42:26;;;;;;;5.20;3.65;;;;;;;16.55;63.41;102972.28;5043192;28;20135;-86
2022/10/17 10:44:56;;;;;;;5.93;3.40;;;;;;;16.62;63.15;102985.03;5027612;28;20025;-86
2022/10/17 10:47:27;;;;;;;5.57;3.35;;;;;;;16.68;63.52;102984.53;5027330;28;20025;-84
2022/10/17 10:50:21;;;;;;;6.30;3.40;;;;;;;16.39;63.55;102933.44;5036666;28;20034;-84
2022/10/17 10:53:24;;;;;;;5.75;3.33;;;;;;;16.24;63.36;102900.81;5148209;27;263268;-84
2022/10/17 10:55:54;;;;;;;11.00;4.72;;;;;;;16.57;63.52;102969.72;5138247;27;20051;-86
2022/10/17 10:58:42;;;;;;;6.25;3.97;;;;;;;16.67;63.76;102973.03;5144960;27;20019;-86
2022/10/17 11:01:20;;;;;;;8.25;3.63;;;;;;;16.42;63.80;102941.53;5149976;27;20019;-86
2022/10/17 11:03:51;;;;;;;5.50;3.50;;;;;;;16.60;64.00;102976.13;5139721;27;20027;-86
2022/10/17 11:06:25;;;;;;;6.82;3.33;;;;;;;16.63;64.17;102976.28;5143525;27;20074;-87
2022/10/17 11:09:29;;;;;;;6.65;3.67;;;;;;;16.54;64.35;102951.97;5131244;27;20061;-84
2022/10/17 11:12:03;;;;;;;5.65;3.90;;;;;;;16.59;63.89;102949.63;5137736;27;20042;-85
2022/10/17 11:15:10;;;;;;;7.60;3.75;;;;;;;16.79;63.62;102975.56;5146163;27;20022;-86
2022/10/17 11:17:42;;;;;;;5.37;3.53;;;;;;;16.65;63.64;102952.66;5151484;27;20042;-85
2022/10/17 11:20:19;;;;;;;8.18;4.05;;;;;;;16.68;63.96;102963.44;5142748;27;20050;-84
2022/10/17 11:22:51;;;;;;;6.00;3.70;;;;;;;16.75;63.83;102975.28;5138753;27;20062;-86
2022/10/17 11:25:32;;;;;;;5.75;3.70;;;;;;;16.74;63.93;102968.16;5144727;27;20055;-84
2022/10/17 11:27:57;;;;;;;4.55;3.47;;;;;;;16.72;63.66;102956.59;5149318;27;20022;-85
2022/10/17 11:30:26;;;;;;;5.38;3.47;;;;;;;16.75;63.83;102965.63;5149439;27;20027;-85
2022/10/17 11:32:59;;;;;;;4.78;3.33;;;;;;;16.65;63.69;102948.28;5149519;27;20027;-83
2022/10/17 11:35:29;;;;;;;7.85;3.47;;;;;;;16.74;63.80;102961.16;5148096;27;20026;-86
2022/10/17 11:38:27;;;;;;;6.55;3.63;;;;;;;16.76;63.75;102962.16;5138861;27;20062;-86
2022/10/17 11:40:56;;;;;;;6.18;3.67;;;;;;;16.67;63.94;102962.50;5134618;27;20453;-85
2022/10/17 11:43:30;;;;;;;5.65;3.47;;;;;;;16.73;63.88;102969.91;5148348;27;20556;-86